sensor_id;sensor_type;location;lat;lon;timestamp;P1;durP1;ratioP1;P2;durP2;ratioP2
52104;SDS011;38103;42.776;23.112;2024-02-23T00:02:13;16.75;;;8.80;;
52104;SDS011;38103;42.776;23.112;2024-02-23T00:04:38;14.32;;;7.75;;
52104;SDS011;38103;42.776;23.112;2024-02-23T00:07:03;15.48;;;8.63;;
52104;SDS011;38103;42.776;23.112;2024-02-23T00:09:29;13.30;;;6.95;;
52104;SDS011;38103;42.776;23.112;2024-02-23T00:11:54;15.82;;;7.72;;
52104;SDS011;38103;42.776;23.112;2024-02-23T00:14:19;18.73;;;9.10;;
52104;SDS011;38103;42.776;23.112;2024-02-23T00:16:45;13.45;;;8.07;;
52104;SDS011;38103;42.776;23.112;2024-02-23T00:19:11;13.10;;;7.93;;
52104;SDS011;38103;42.776;23.112;2024-02-23T00:21:37;16.80;;;8.68;;
52104;SDS011;38103;42.776;23.112;2024-02-23T00:24:03;16.33;;;10.05;;
52104;SDS011;38103;42.776;23.112;2024-02-23T00:26:29;14.75;;;8.52;;
52104;SDS011;38103;42.776;23.112;2024-02-23T00:28:55;16.70;;;10.88;;
52104;SDS011;38103;42.776;23.112;2024-02-23T00:31:20;13.13;;;7.50;;
52104;SDS011;38103;42.776;23.112;2024-02-23T00:33:45;15.93;;;8.52;;
52104;SDS011;38103;42.776;23.112;2024-02-23T00:36:11;15.68;;;9.45;;
52104;SDS011;38103;42.776;23.112;2024-02-23T00:38:37;17.27;;;8.02;;
52104;SDS011;38103;42.776;23.112;2024-02-23T00:41:02;13.52;;;7.60;;
52104;SDS011;38103;42.776;23.112;2024-02-23T00:43:28;13.73;;;7.90;;
52104;SDS011;38103;42.776;23.112;2024-02-23T00:45:56;17.23;;;8.95;;
52104;SDS011;38103;42.776;23.112;2024-02-23T00:48:21;16.77;;;8.32;;
52104;SDS011;38103;42.776;23.112;2024-02-23T00:50:46;11.90;;;7.55;;
52104;SDS011;38103;42.776;23.112;2024-02-23T00:53:12;15.13;;;9.15;;
52104;SDS011;38103;42.776;23.112;2024-02-23T00:55:37;15.52;;;8.35;;
52104;SDS011;38103;42.776;23.112;2024-02-23T00:58:03;12.18;;;7.43;;
52104;SDS011;38103;42.776;23.112;2024-02-23T01:00:28;14.13;;;8.13;;
52104;SDS011;38103;42.776;23.112;2024-02-23T01:02:54;15.68;;;9.10;;
52104;SDS011;38103;42.776;23.112;2024-02-23T01:05:19;18.80;;;8.30;;
52104;SDS011;38103;42.776;23.112;2024-02-23T01:07:45;19.00;;;8.35;;
52104;SDS011;38103;42.776;23.112;2024-02-23T01:10:10;16.63;;;9.45;;
52104;SDS011;38103;42.776;23.112;2024-02-23T01:12:35;15.60;;;8.70;;
52104;SDS011;38103;42.776;23.112;2024-02-23T01:15:01;11.45;;;8.32;;
52104;SDS011;38103;42.776;23.112;2024-02-23T01:17:26;16.42;;;9.20;;
52104;SDS011;38103;42.776;23.112;2024-02-23T01:19:52;14.98;;;8.38;;
52104;SDS011;38103;42.776;23.112;2024-02-23T01:22:17;18.25;;;8.68;;
52104;SDS011;38103;42.776;23.112;2024-02-23T01:24:42;14.30;;;8.90;;
52104;SDS011;38103;42.776;23.112;2024-02-23T01:27:08;14.90;;;8.60;;
52104;SDS011;38103;42.776;23.112;2024-02-23T01:29:33;15.30;;;9.02;;
52104;SDS011;38103;42.776;23.112;2024-02-23T01:31:59;19.27;;;10.43;;
52104;SDS011;38103;42.776;23.112;2024-02-23T01:34:24;17.23;;;9.15;;
52104;SDS011;38103;42.776;23.112;2024-02-23T01:36:50;19.13;;;9.45;;
52104;SDS011;38103;42.776;23.112;2024-02-23T01:39:16;18.48;;;9.15;;
52104;SDS011;38103;42.776;23.112;2024-02-23T01:41:41;15.27;;;9.57;;
52104;SDS011;38103;42.776;23.112;2024-02-23T01:44:09;21.33;;;9.88;;
52104;SDS011;38103;42.776;23.112;2024-02-23T01:49:00;14.88;;;8.70;;
52104;SDS011;38103;42.776;23.112;2024-02-23T01:51:26;14.05;;;8.30;;
52104;SDS011;38103;42.776;23.112;2024-02-23T01:53:51;13.98;;;9.02;;
52104;SDS011;38103;42.776;23.112;2024-02-23T01:56:17;17.50;;;8.80;;
52104;SDS011;38103;42.776;23.112;2024-02-23T01:58:44;18.67;;;9.68;;
52104;SDS011;38103;42.776;23.112;2024-02-23T02:01:11;13.95;;;8.18;;
52104;SDS011;38103;42.776;23.112;2024-02-23T02:03:38;15.23;;;8.57;;
52104;SDS011;38103;42.776;23.112;2024-02-23T02:06:04;13.48;;;8.60;;
52104;SDS011;38103;42.776;23.112;2024-02-23T02:08:31;18.52;;;9.05;;
52104;SDS011;38103;42.776;23.112;2024-02-23T02:10:58;15.98;;;9.50;;
52104;SDS011;38103;42.776;23.112;2024-02-23T02:13:24;15.02;;;8.65;;
52104;SDS011;38103;42.776;23.112;2024-02-23T02:15:49;16.60;;;8.40;;
52104;SDS011;38103;42.776;23.112;2024-02-23T02:18:14;14.00;;;7.85;;
52104;SDS011;38103;42.776;23.112;2024-02-23T02:20:40;16.27;;;8.63;;
52104;SDS011;38103;42.776;23.112;2024-02-23T02:23:30;15.02;;;7.07;;
52104;SDS011;38103;42.776;23.112;2024-02-23T02:25:56;13.15;;;7.35;;
52104;SDS011;38103;42.776;23.112;2024-02-23T02:28:22;11.32;;;6.75;;
52104;SDS011;38103;42.776;23.112;2024-02-23T02:30:49;12.20;;;7.78;;
52104;SDS011;38103;42.776;23.112;2024-02-23T02:33:15;14.50;;;8.27;;
52104;SDS011;38103;42.776;23.112;2024-02-23T02:35:40;14.70;;;7.85;;
52104;SDS011;38103;42.776;23.112;2024-02-23T02:38:05;13.40;;;7.43;;
52104;SDS011;38103;42.776;23.112;2024-02-23T02:40:31;15.23;;;8.13;;
52104;SDS011;38103;42.776;23.112;2024-02-23T02:42:57;16.95;;;7.45;;
52104;SDS011;38103;42.776;23.112;2024-02-23T02:45:23;13.60;;;6.85;;
52104;SDS011;38103;42.776;23.112;2024-02-23T02:47:48;12.80;;;7.65;;
52104;SDS011;38103;42.776;23.112;2024-02-23T02:50:14;14.48;;;8.13;;
52104;SDS011;38103;42.776;23.112;2024-02-23T02:52:39;13.10;;;7.88;;
52104;SDS011;38103;42.776;23.112;2024-02-23T02:55:05;17.70;;;8.30;;
52104;SDS011;38103;42.776;23.112;2024-02-23T02:57:30;11.82;;;7.32;;
52104;SDS011;38103;42.776;23.112;2024-02-23T02:59:56;13.95;;;7.50;;
52104;SDS011;38103;42.776;23.112;2024-02-23T03:02:21;15.20;;;8.30;;
52104;SDS011;38103;42.776;23.112;2024-02-23T03:04:47;12.95;;;7.10;;
52104;SDS011;38103;42.776;23.112;2024-02-23T03:09:38;12.17;;;6.73;;
52104;SDS011;38103;42.776;23.112;2024-02-23T03:12:03;12.07;;;6.85;;
52104;SDS011;38103;42.776;23.112;2024-02-23T03:14:29;13.85;;;7.32;;
52104;SDS011;38103;42.776;23.112;2024-02-23T03:16:54;15.07;;;7.78;;
52104;SDS011;38103;42.776;23.112;2024-02-23T03:19:20;13.35;;;7.22;;
52104;SDS011;38103;42.776;23.112;2024-02-23T03:21:47;13.63;;;7.40;;
52104;SDS011;38103;42.776;23.112;2024-02-23T03:24:12;13.48;;;8.05;;
52104;SDS011;38103;42.776;23.112;2024-02-23T03:26:38;17.67;;;9.00;;
52104;SDS011;38103;42.776;23.112;2024-02-23T03:29:03;31.38;;;13.30;;
52104;SDS011;38103;42.776;23.112;2024-02-23T03:31:28;26.27;;;12.35;;
52104;SDS011;38103;42.776;23.112;2024-02-23T03:33:54;21.52;;;9.95;;
52104;SDS011;38103;42.776;23.112;2024-02-23T03:36:19;24.65;;;12.73;;
52104;SDS011;38103;42.776;23.112;2024-02-23T03:38:44;22.95;;;10.95;;
52104;SDS011;38103;42.776;23.112;2024-02-23T03:41:10;14.52;;;7.90;;
52104;SDS011;38103;42.776;23.112;2024-02-23T03:43:35;19.48;;;8.95;;
52104;SDS011;38103;42.776;23.112;2024-02-23T03:46:02;16.40;;;7.68;;
52104;SDS011;38103;42.776;23.112;2024-02-23T03:48:28;13.57;;;7.68;;
52104;SDS011;38103;42.776;23.112;2024-02-23T03:50:53;14.27;;;7.10;;
52104;SDS011;38103;42.776;23.112;2024-02-23T03:53:19;12.02;;;6.68;;
52104;SDS011;38103;42.776;23.112;2024-02-23T03:55:44;13.50;;;7.22;;
52104;SDS011;38103;42.776;23.112;2024-02-23T03:58:10;12.15;;;6.88;;
52104;SDS011;38103;42.776;23.112;2024-02-23T04:00:35;13.25;;;8.25;;
52104;SDS011;38103;42.776;23.112;2024-02-23T04:03:01;14.90;;;8.30;;
52104;SDS011;38103;42.776;23.112;2024-02-23T04:05:26;18.80;;;8.55;;
52104;SDS011;38103;42.776;23.112;2024-02-23T04:07:51;14.00;;;8.13;;
52104;SDS011;38103;42.776;23.112;2024-02-23T04:10:17;15.75;;;8.02;;
52104;SDS011;38103;42.776;23.112;2024-02-23T04:12:46;11.57;;;7.00;;
52104;SDS011;38103;42.776;23.112;2024-02-23T04:15:11;13.60;;;6.18;;
52104;SDS011;38103;42.776;23.112;2024-02-23T04:17:37;12.63;;;8.10;;
52104;SDS011;38103;42.776;23.112;2024-02-23T04:20:05;12.25;;;7.22;;
52104;SDS011;38103;42.776;23.112;2024-02-23T04:22:31;18.25;;;8.40;;
52104;SDS011;38103;42.776;23.112;2024-02-23T04:24:57;12.45;;;6.68;;
52104;SDS011;38103;42.776;23.112;2024-02-23T04:27:22;19.50;;;7.65;;
52104;SDS011;38103;42.776;23.112;2024-02-23T04:29:47;14.32;;;6.95;;
52104;SDS011;38103;42.776;23.112;2024-02-23T04:32:13;15.50;;;7.35;;
52104;SDS011;38103;42.776;23.112;2024-02-23T04:34:38;16.75;;;8.40;;
52104;SDS011;38103;42.776;23.112;2024-02-23T04:37:05;13.77;;;7.75;;
52104;SDS011;38103;42.776;23.112;2024-02-23T04:39:30;14.25;;;7.07;;
52104;SDS011;38103;42.776;23.112;2024-02-23T04:41:56;11.77;;;7.00;;
52104;SDS011;38103;42.776;23.112;2024-02-23T04:44:21;16.90;;;8.07;;
52104;SDS011;38103;42.776;23.112;2024-02-23T04:46:47;17.08;;;8.82;;
52104;SDS011;38103;42.776;23.112;2024-02-23T04:49:13;12.93;;;6.68;;
52104;SDS011;38103;42.776;23.112;2024-02-23T04:51:38;10.77;;;7.28;;
52104;SDS011;38103;42.776;23.112;2024-02-23T04:54:04;13.13;;;8.02;;
52104;SDS011;38103;42.776;23.112;2024-02-23T04:56:29;12.13;;;7.50;;
52104;SDS011;38103;42.776;23.112;2024-02-23T04:58:54;15.02;;;7.03;;
52104;SDS011;38103;42.776;23.112;2024-02-23T05:01:20;13.52;;;7.10;;
52104;SDS011;38103;42.776;23.112;2024-02-23T05:03:45;14.75;;;7.70;;
52104;SDS011;38103;42.776;23.112;2024-02-23T05:06:11;16.13;;;7.53;;
52104;SDS011;38103;42.776;23.112;2024-02-23T05:08:37;11.82;;;6.63;;
52104;SDS011;38103;42.776;23.112;2024-02-23T05:11:02;9.77;;;6.35;;
52104;SDS011;38103;42.776;23.112;2024-02-23T05:13:28;11.05;;;6.20;;
52104;SDS011;38103;42.776;23.112;2024-02-23T05:15:55;11.68;;;7.70;;
52104;SDS011;38103;42.776;23.112;2024-02-23T05:18:20;13.55;;;7.72;;
52104;SDS011;38103;42.776;23.112;2024-02-23T05:20:45;21.02;;;8.30;;
52104;SDS011;38103;42.776;23.112;2024-02-23T05:23:11;12.77;;;7.93;;
52104;SDS011;38103;42.776;23.112;2024-02-23T05:25:36;11.20;;;7.10;;
52104;SDS011;38103;42.776;23.112;2024-02-23T05:28:01;10.40;;;6.05;;
52104;SDS011;38103;42.776;23.112;2024-02-23T05:30:27;12.57;;;6.90;;
52104;SDS011;38103;42.776;23.112;2024-02-23T05:32:56;10.70;;;6.85;;
52104;SDS011;38103;42.776;23.112;2024-02-23T05:35:22;12.02;;;6.68;;
52104;SDS011;38103;42.776;23.112;2024-02-23T05:37:47;14.18;;;7.28;;
52104;SDS011;38103;42.776;23.112;2024-02-23T05:40:13;14.15;;;7.32;;
52104;SDS011;38103;42.776;23.112;2024-02-23T05:42:38;13.32;;;6.63;;
52104;SDS011;38103;42.776;23.112;2024-02-23T05:45:04;17.23;;;6.13;;
52104;SDS011;38103;42.776;23.112;2024-02-23T05:47:33;11.80;;;6.38;;
52104;SDS011;38103;42.776;23.112;2024-02-23T05:50:08;10.65;;;5.95;;
52104;SDS011;38103;42.776;23.112;2024-02-23T05:52:36;11.68;;;6.32;;
52104;SDS011;38103;42.776;23.112;2024-02-23T05:55:02;12.15;;;6.47;;
52104;SDS011;38103;42.776;23.112;2024-02-23T05:59:54;8.48;;;5.35;;
52104;SDS011;38103;42.776;23.112;2024-02-23T06:02:23;10.65;;;6.15;;
52104;SDS011;38103;42.776;23.112;2024-02-23T06:04:48;12.40;;;6.78;;
52104;SDS011;38103;42.776;23.112;2024-02-23T06:07:14;10.30;;;6.43;;
52104;SDS011;38103;42.776;23.112;2024-02-23T06:09:43;9.02;;;5.78;;
52104;SDS011;38103;42.776;23.112;2024-02-23T06:12:08;9.32;;;5.78;;
52104;SDS011;38103;42.776;23.112;2024-02-23T06:14:34;12.65;;;6.10;;
52104;SDS011;38103;42.776;23.112;2024-02-23T06:16:59;10.18;;;5.93;;
52104;SDS011;38103;42.776;23.112;2024-02-23T06:19:25;9.73;;;6.43;;
52104;SDS011;38103;42.776;23.112;2024-02-23T06:21:50;11.25;;;5.95;;
52104;SDS011;38103;42.776;23.112;2024-02-23T06:24:16;11.80;;;5.63;;
52104;SDS011;38103;42.776;23.112;2024-02-23T06:26:42;11.52;;;6.03;;
52104;SDS011;38103;42.776;23.112;2024-02-23T06:29:07;10.60;;;5.97;;
52104;SDS011;38103;42.776;23.112;2024-02-23T06:31:37;9.85;;;6.00;;
52104;SDS011;38103;42.776;23.112;2024-02-23T06:34:03;9.50;;;6.20;;
52104;SDS011;38103;42.776;23.112;2024-02-23T06:36:29;12.30;;;7.55;;
52104;SDS011;38103;42.776;23.112;2024-02-23T06:38:54;8.27;;;5.25;;
52104;SDS011;38103;42.776;23.112;2024-02-23T06:41:20;8.25;;;6.28;;
52104;SDS011;38103;42.776;23.112;2024-02-23T06:43:45;11.15;;;6.32;;
52104;SDS011;38103;42.776;23.112;2024-02-23T06:46:11;11.48;;;5.78;;
52104;SDS011;38103;42.776;23.112;2024-02-23T06:48:36;9.68;;;5.50;;
52104;SDS011;38103;42.776;23.112;2024-02-23T06:51:05;8.55;;;5.38;;
52104;SDS011;38103;42.776;23.112;2024-02-23T06:53:34;6.63;;;4.82;;
52104;SDS011;38103;42.776;23.112;2024-02-23T06:56:00;8.68;;;5.00;;
52104;SDS011;38103;42.776;23.112;2024-02-23T06:58:26;10.27;;;5.07;;
52104;SDS011;38103;42.776;23.112;2024-02-23T07:00:52;8.25;;;5.30;;
52104;SDS011;38103;42.776;23.112;2024-02-23T07:03:17;9.65;;;5.95;;
52104;SDS011;38103;42.776;23.112;2024-02-23T07:05:43;10.15;;;5.85;;
52104;SDS011;38103;42.776;23.112;2024-02-23T07:08:10;8.43;;;4.47;;
52104;SDS011;38103;42.776;23.112;2024-02-23T07:10:35;11.60;;;5.63;;
52104;SDS011;38103;42.776;23.112;2024-02-23T07:13:01;7.55;;;5.00;;
52104;SDS011;38103;42.776;23.112;2024-02-23T07:15:26;6.05;;;5.05;;
52104;SDS011;38103;42.776;23.112;2024-02-23T07:17:52;7.63;;;4.70;;
52104;SDS011;38103;42.776;23.112;2024-02-23T07:20:17;8.18;;;4.80;;
52104;SDS011;38103;42.776;23.112;2024-02-23T07:22:43;7.15;;;5.47;;
52104;SDS011;38103;42.776;23.112;2024-02-23T07:25:10;9.10;;;5.22;;
52104;SDS011;38103;42.776;23.112;2024-02-23T07:27:36;10.48;;;5.00;;
52104;SDS011;38103;42.776;23.112;2024-02-23T07:30:01;5.85;;;4.82;;
52104;SDS011;38103;42.776;23.112;2024-02-23T07:32:28;8.63;;;5.30;;
52104;SDS011;38103;42.776;23.112;2024-02-23T07:34:54;6.18;;;4.47;;
52104;SDS011;38103;42.776;23.112;2024-02-23T07:37:20;9.73;;;4.32;;
52104;SDS011;38103;42.776;23.112;2024-02-23T07:39:45;6.93;;;4.38;;
52104;SDS011;38103;42.776;23.112;2024-02-23T07:42:10;7.72;;;4.10;;
52104;SDS011;38103;42.776;23.112;2024-02-23T07:44:38;8.13;;;4.40;;
52104;SDS011;38103;42.776;23.112;2024-02-23T07:47:03;8.30;;;4.72;;
52104;SDS011;38103;42.776;23.112;2024-02-23T07:49:29;7.15;;;4.07;;
52104;SDS011;38103;42.776;23.112;2024-02-23T07:51:55;8.52;;;4.80;;
52104;SDS011;38103;42.776;23.112;2024-02-23T07:54:20;6.28;;;4.70;;
52104;SDS011;38103;42.776;23.112;2024-02-23T07:56:46;7.88;;;3.95;;
52104;SDS011;38103;42.776;23.112;2024-02-23T07:59:11;6.75;;;4.35;;
52104;SDS011;38103;42.776;23.112;2024-02-23T08:01:36;8.93;;;4.55;;
52104;SDS011;38103;42.776;23.112;2024-02-23T08:04:02;7.57;;;4.80;;
52104;SDS011;38103;42.776;23.112;2024-02-23T08:06:28;8.20;;;4.53;;
52104;SDS011;38103;42.776;23.112;2024-02-23T08:08:53;7.68;;;4.18;;
52104;SDS011;38103;42.776;23.112;2024-02-23T08:11:20;6.05;;;4.13;;
52104;SDS011;38103;42.776;23.112;2024-02-23T08:13:45;4.32;;;3.78;;
52104;SDS011;38103;42.776;23.112;2024-02-23T08:16:11;4.38;;;3.40;;
52104;SDS011;38103;42.776;23.112;2024-02-23T08:39:06;7.90;;;3.03;;
52104;SDS011;38103;42.776;23.112;2024-02-23T08:41:33;3.53;;;2.88;;
52104;SDS011;38103;42.776;23.112;2024-02-23T08:43:58;4.28;;;3.75;;
52104;SDS011;38103;42.776;23.112;2024-02-23T08:46:23;3.63;;;3.00;;
52104;SDS011;38103;42.776;23.112;2024-02-23T08:48:49;4.15;;;2.72;;
52104;SDS011;38103;42.776;23.112;2024-02-23T08:51:14;4.85;;;3.40;;
52104;SDS011;38103;42.776;23.112;2024-02-23T08:53:39;3.40;;;2.63;;
52104;SDS011;38103;42.776;23.112;2024-02-23T09:39:52;2.97;;;2.40;;
52104;SDS011;38103;42.776;23.112;2024-02-23T09:42:18;1.80;;;1.70;;
52104;SDS011;38103;42.776;23.112;2024-02-23T09:44:47;2.35;;;2.10;;
52104;SDS011;38103;42.776;23.112;2024-02-23T09:47:22;2.97;;;2.00;;
52104;SDS011;38103;42.776;23.112;2024-02-23T09:49:49;2.20;;;2.00;;
52104;SDS011;38103;42.776;23.112;2024-02-23T09:52:16;2.65;;;2.00;;
52104;SDS011;38103;42.776;23.112;2024-02-23T09:54:44;3.20;;;2.53;;
52104;SDS011;38103;42.776;23.112;2024-02-23T09:57:09;2.97;;;2.35;;
52104;SDS011;38103;42.776;23.112;2024-02-23T09:59:35;2.13;;;1.88;;
52104;SDS011;38103;42.776;23.112;2024-02-23T10:02:14;2.67;;;1.80;;
52104;SDS011;38103;42.776;23.112;2024-02-23T10:04:41;2.55;;;2.30;;
52104;SDS011;38103;42.776;23.112;2024-02-23T10:07:14;2.13;;;1.92;;
52104;SDS011;38103;42.776;23.112;2024-02-23T10:09:41;2.35;;;1.85;;
52104;SDS011;38103;42.776;23.112;2024-02-23T10:12:06;7.85;;;3.05;;
52104;SDS011;38103;42.776;23.112;2024-02-23T10:14:32;2.80;;;2.30;;
52104;SDS011;38103;42.776;23.112;2024-02-23T10:16:57;2.88;;;2.28;;
52104;SDS011;38103;42.776;23.112;2024-02-23T10:19:23;4.20;;;1.98;;
52104;SDS011;38103;42.776;23.112;2024-02-23T10:21:53;3.97;;;2.53;;
52104;SDS011;38103;42.776;23.112;2024-02-23T10:24:19;2.05;;;1.85;;
52104;SDS011;38103;42.776;23.112;2024-02-23T10:26:45;1.90;;;1.80;;
52104;SDS011;38103;42.776;23.112;2024-02-23T10:29:10;4.53;;;1.95;;
52104;SDS011;38103;42.776;23.112;2024-02-23T10:31:35;2.30;;;2.00;;
52104;SDS011;38103;42.776;23.112;2024-02-23T10:34:04;3.88;;;2.08;;
52104;SDS011;38103;42.776;23.112;2024-02-23T10:36:36;2.90;;;2.10;;
52104;SDS011;38103;42.776;23.112;2024-02-23T10:39:03;2.58;;;2.35;;
52104;SDS011;38103;42.776;23.112;2024-02-23T10:41:29;4.90;;;1.85;;
52104;SDS011;38103;42.776;23.112;2024-02-23T10:43:59;1.95;;;1.60;;
52104;SDS011;38103;42.776;23.112;2024-02-23T10:46:26;2.58;;;2.05;;
52104;SDS011;38103;42.776;23.112;2024-02-23T10:48:52;2.60;;;1.77;;
52104;SDS011;38103;42.776;23.112;2024-02-23T10:51:20;2.05;;;1.80;;
52104;SDS011;38103;42.776;23.112;2024-02-23T10:53:46;2.17;;;1.88;;
52104;SDS011;38103;42.776;23.112;2024-02-23T10:56:13;3.53;;;2.25;;
52104;SDS011;38103;42.776;23.112;2024-02-23T10:58:38;4.57;;;2.22;;
52104;SDS011;38103;42.776;23.112;2024-02-23T11:01:05;2.72;;;2.35;;
52104;SDS011;38103;42.776;23.112;2024-02-23T11:03:32;1.83;;;1.63;;
52104;SDS011;38103;42.776;23.112;2024-02-23T11:05:59;7.72;;;3.35;;
52104;SDS011;38103;42.776;23.112;2024-02-23T11:08:27;4.00;;;2.78;;
52104;SDS011;38103;42.776;23.112;2024-02-23T11:13:35;8.13;;;1.80;;
52104;SDS011;38103;42.776;23.112;2024-02-23T11:16:08;1.77;;;1.48;;
52104;SDS011;38103;42.776;23.112;2024-02-23T11:18:36;2.08;;;1.90;;
52104;SDS011;38103;42.776;23.112;2024-02-23T11:21:04;5.93;;;2.28;;
52104;SDS011;38103;42.776;23.112;2024-02-23T11:26:06;4.10;;;2.20;;
52104;SDS011;38103;42.776;23.112;2024-02-23T11:28:33;5.55;;;2.65;;
52104;SDS011;38103;42.776;23.112;2024-02-23T11:31:11;2.30;;;2.10;;
52104;SDS011;38103;42.776;23.112;2024-02-23T11:33:38;1.85;;;1.75;;
52104;SDS011;38103;42.776;23.112;2024-02-23T11:36:09;2.67;;;1.92;;
52104;SDS011;38103;42.776;23.112;2024-02-23T11:38:35;2.00;;;1.90;;
52104;SDS011;38103;42.776;23.112;2024-02-23T11:41:01;2.17;;;1.98;;
52104;SDS011;38103;42.776;23.112;2024-02-23T11:43:28;2.03;;;1.83;;
52104;SDS011;38103;42.776;23.112;2024-02-23T11:45:53;2.35;;;2.15;;
52104;SDS011;38103;42.776;23.112;2024-02-23T11:48:19;1.85;;;1.73;;
52104;SDS011;38103;42.776;23.112;2024-02-23T11:50:47;2.78;;;1.90;;
52104;SDS011;38103;42.776;23.112;2024-02-23T11:53:13;6.03;;;1.88;;
52104;SDS011;38103;42.776;23.112;2024-02-23T11:55:39;1.50;;;1.40;;
52104;SDS011;38103;42.776;23.112;2024-02-23T11:58:05;2.33;;;1.77;;
52104;SDS011;38103;42.776;23.112;2024-02-23T12:00:31;1.80;;;1.70;;
52104;SDS011;38103;42.776;23.112;2024-02-23T12:02:57;1.50;;;1.40;;
52104;SDS011;38103;42.776;23.112;2024-02-23T12:05:22;3.45;;;2.22;;
52104;SDS011;38103;42.776;23.112;2024-02-23T12:07:47;1.98;;;1.88;;
52104;SDS011;38103;42.776;23.112;2024-02-23T12:10:13;2.28;;;1.65;;
52104;SDS011;38103;42.776;23.112;2024-02-23T12:12:39;1.52;;;1.42;;
52104;SDS011;38103;42.776;23.112;2024-02-23T12:15:05;3.38;;;1.60;;
52104;SDS011;38103;42.776;23.112;2024-02-23T12:17:31;3.05;;;1.70;;
52104;SDS011;38103;42.776;23.112;2024-02-23T12:19:59;1.92;;;1.50;;
52104;SDS011;38103;42.776;23.112;2024-02-23T12:22:25;13.77;;;1.98;;
52104;SDS011;38103;42.776;23.112;2024-02-23T12:24:51;7.80;;;1.48;;
52104;SDS011;38103;42.776;23.112;2024-02-23T12:27:16;2.13;;;1.83;;
52104;SDS011;38103;42.776;23.112;2024-02-23T12:29:50;1.40;;;1.30;;
52104;SDS011;38103;42.776;23.112;2024-02-23T12:32:19;1.98;;;1.10;;
52104;SDS011;38103;42.776;23.112;2024-02-23T12:34:45;1.40;;;1.30;;
52104;SDS011;38103;42.776;23.112;2024-02-23T12:37:12;2.40;;;1.20;;
52104;SDS011;38103;42.776;23.112;2024-02-23T12:39:40;2.30;;;1.60;;
52104;SDS011;38103;42.776;23.112;2024-02-23T12:42:05;1.42;;;1.33;;
52104;SDS011;38103;42.776;23.112;2024-02-23T12:44:30;4.85;;;1.60;;
52104;SDS011;38103;42.776;23.112;2024-02-23T12:46:56;2.15;;;1.27;;
52104;SDS011;38103;42.776;23.112;2024-02-23T12:49:21;1.35;;;1.25;;
52104;SDS011;38103;42.776;23.112;2024-02-23T12:51:46;2.35;;;0.90;;
52104;SDS011;38103;42.776;23.112;2024-02-23T12:54:12;3.22;;;1.30;;
52104;SDS011;38103;42.776;23.112;2024-02-23T12:56:37;1.27;;;1.23;;
52104;SDS011;38103;42.776;23.112;2024-02-23T12:59:02;1.85;;;1.20;;
52104;SDS011;38103;42.776;23.112;2024-02-23T13:01:28;1.30;;;1.20;;
52104;SDS011;38103;42.776;23.112;2024-02-23T13:03:53;2.05;;;1.38;;
52104;SDS011;38103;42.776;23.112;2024-02-23T13:06:19;1.35;;;1.33;;
52104;SDS011;38103;42.776;23.112;2024-02-23T13:08:44;1.27;;;1.17;;
52104;SDS011;38103;42.776;23.112;2024-02-23T13:11:09;1.35;;;1.25;;
52104;SDS011;38103;42.776;23.112;2024-02-23T13:13:35;1.33;;;1.23;;
52104;SDS011;38103;42.776;23.112;2024-02-23T13:16:00;1.77;;;1.20;;
52104;SDS011;38103;42.776;23.112;2024-02-23T13:18:25;1.73;;;1.02;;
52104;SDS011;38103;42.776;23.112;2024-02-23T13:20:51;1.35;;;1.15;;
52104;SDS011;38103;42.776;23.112;2024-02-23T13:23:16;1.33;;;0.90;;
52104;SDS011;38103;42.776;23.112;2024-02-23T13:25:42;3.92;;;1.73;;
52104;SDS011;38103;42.776;23.112;2024-02-23T13:28:09;2.60;;;1.40;;
52104;SDS011;38103;42.776;23.112;2024-02-23T13:30:35;1.10;;;1.00;;
52104;SDS011;38103;42.776;23.112;2024-02-23T13:35:26;1.05;;;0.95;;
52104;SDS011;38103;42.776;23.112;2024-02-23T13:37:52;1.23;;;0.90;;
52104;SDS011;38103;42.776;23.112;2024-02-23T13:40:18;1.00;;;1.00;;
52104;SDS011;38103;42.776;23.112;2024-02-23T13:42:43;3.53;;;1.08;;
52104;SDS011;38103;42.776;23.112;2024-02-23T13:45:11;1.13;;;1.13;;
52104;SDS011;38103;42.776;23.112;2024-02-23T13:47:38;0.90;;;0.90;;
52104;SDS011;38103;42.776;23.112;2024-02-23T13:50:04;1.27;;;1.10;;
52104;SDS011;38103;42.776;23.112;2024-02-23T13:52:30;2.55;;;1.08;;
52104;SDS011;38103;42.776;23.112;2024-02-23T13:54:56;1.33;;;1.23;;
52104;SDS011;38103;42.776;23.112;2024-02-23T13:57:21;4.53;;;1.45;;
52104;SDS011;38103;42.776;23.112;2024-02-23T13:59:47;1.23;;;1.20;;
52104;SDS011;38103;42.776;23.112;2024-02-23T14:02:12;1.02;;;0.93;;
52104;SDS011;38103;42.776;23.112;2024-02-23T14:04:38;4.38;;;1.85;;
52104;SDS011;38103;42.776;23.112;2024-02-23T14:07:03;2.13;;;1.10;;
52104;SDS011;38103;42.776;23.112;2024-02-23T14:09:29;5.20;;;1.40;;
52104;SDS011;38103;42.776;23.112;2024-02-23T14:11:55;1.10;;;1.00;;
52104;SDS011;38103;42.776;23.112;2024-02-23T14:14:21;1.10;;;1.00;;
52104;SDS011;38103;42.776;23.112;2024-02-23T14:16:47;2.05;;;1.00;;
52104;SDS011;38103;42.776;23.112;2024-02-23T14:19:13;1.23;;;1.13;;
52104;SDS011;38103;42.776;23.112;2024-02-23T14:21:38;1.30;;;1.20;;
52104;SDS011;38103;42.776;23.112;2024-02-23T14:24:03;1.23;;;1.10;;
52104;SDS011;38103;42.776;23.112;2024-02-23T14:26:29;1.33;;;1.02;;
52104;SDS011;38103;42.776;23.112;2024-02-23T14:28:54;1.23;;;1.13;;
52104;SDS011;38103;42.776;23.112;2024-02-23T14:31:20;1.20;;;1.10;;
52104;SDS011;38103;42.776;23.112;2024-02-23T14:33:45;1.52;;;1.42;;
52104;SDS011;38103;42.776;23.112;2024-02-23T14:36:10;1.52;;;1.13;;
52104;SDS011;38103;42.776;23.112;2024-02-23T14:38:36;1.45;;;1.35;;
52104;SDS011;38103;42.776;23.112;2024-02-23T14:41:01;1.33;;;1.20;;
52104;SDS011;38103;42.776;23.112;2024-02-23T14:43:27;1.23;;;1.13;;
52104;SDS011;38103;42.776;23.112;2024-02-23T14:45:52;3.20;;;1.08;;
52104;SDS011;38103;42.776;23.112;2024-02-23T14:48:18;1.40;;;1.30;;
52104;SDS011;38103;42.776;23.112;2024-02-23T14:50:43;3.40;;;1.73;;
52104;SDS011;38103;42.776;23.112;2024-02-23T14:53:09;1.10;;;1.10;;
52104;SDS011;38103;42.776;23.112;2024-02-23T14:55:36;1.50;;;0.98;;
52104;SDS011;38103;42.776;23.112;2024-02-23T14:58:01;1.92;;;1.73;;
52104;SDS011;38103;42.776;23.112;2024-02-23T15:00:27;2.60;;;2.40;;
52104;SDS011;38103;42.776;23.112;2024-02-23T15:02:54;1.83;;;1.73;;
52104;SDS011;38103;42.776;23.112;2024-02-23T15:05:20;17.35;;;2.47;;
52104;SDS011;38103;42.776;23.112;2024-02-23T15:07:45;3.70;;;1.52;;
52104;SDS011;38103;42.776;23.112;2024-02-23T15:10:11;2.30;;;1.48;;
52104;SDS011;38103;42.776;23.112;2024-02-23T15:12:36;1.35;;;1.20;;
52104;SDS011;38103;42.776;23.112;2024-02-23T15:15:02;2.67;;;1.48;;
52104;SDS011;38103;42.776;23.112;2024-02-23T15:17:28;2.00;;;1.55;;
52104;SDS011;38103;42.776;23.112;2024-02-23T15:19:54;1.38;;;1.27;;
52104;SDS011;38103;42.776;23.112;2024-02-23T15:22:20;1.52;;;1.40;;
52104;SDS011;38103;42.776;23.112;2024-02-23T15:24:45;1.27;;;1.17;;
52104;SDS011;38103;42.776;23.112;2024-02-23T15:27:14;1.77;;;1.52;;
52104;SDS011;38103;42.776;23.112;2024-02-23T15:29:43;1.30;;;1.15;;
52104;SDS011;38103;42.776;23.112;2024-02-23T15:32:09;2.55;;;1.40;;
52104;SDS011;38103;42.776;23.112;2024-02-23T15:34:37;1.65;;;1.27;;
52104;SDS011;38103;42.776;23.112;2024-02-23T15:37:02;1.80;;;1.10;;
52104;SDS011;38103;42.776;23.112;2024-02-23T15:39:28;1.70;;;1.55;;
52104;SDS011;38103;42.776;23.112;2024-02-23T15:41:53;2.30;;;2.10;;